Time;durP1;ratioP1;P1;durP2;ratioP2;P2;SDS_P1;SDS_P2;PMS_P1;PMS_P2;Temp;Humidity;BMP_temperature;BMP_pressure;BME280_temperature;BME280_humidity;BME280_pressure;Samples;Min_cycle;Max_cycle;Signal;HPM_P1;HPM_P2
2023/02/02 00:01:32;;;;;;;8.40;2.08;;;;;;;5.12;100.00;99357.81;5074909;28;20066;-67
2023/02/02 00:03:57;;;;;;;13.68;2.20;;;;;;;5.11;100.00;99361.50;5072400;28;20529;-66
2023/02/02 00:06:24;;;;;;;13.10;2.08;;;;;;;5.12;100.00;99351.59;5075685;28;20027;-67
2023/02/02 00:08:49;;;;;;;8.70;1.77;;;;;;;5.07;100.00;99344.00;5074955;28;20035;-67
2023/02/02 00:11:16;;;;;;;17.35;1.73;;;;;;;5.11;100.00;99350.75;5067037;28;20021;-67
2023/02/02 00:13:42;;;;;;;9.52;2.05;;;;;;;5.14;100.00;99349.63;5076002;28;20030;-64
2023/02/02 00:16:26;;;;;;;9.35;2.38;;;;;;;5.15;100.00;99349.44;5070039;28;20119;-63
2023/02/02 00:18:59;;;;;;;13.93;2.10;;;;;;;5.12;100.00;99352.44;5066455;28;20024;-63
2023/02/02 00:21:25;;;;;;;11.48;1.90;;;;;;;5.11;100.00;99344.53;5074987;28;20028;-67
2023/02/02 00:23:51;;;;;;;11.68;1.70;;;;;;;5.11;100.00;99345.41;5074526;28;20030;-66
2023/02/02 00:26:17;;;;;;;10.02;1.90;;;;;;;5.17;100.00;99338.56;5070966;28;20034;-67
2023/02/02 00:28:42;;;;;;;14.32;1.90;;;;;;;5.16;100.00;99337.72;5072103;28;20020;-67
2023/02/02 00:31:08;;;;;;;14.10;2.03;;;;;;;5.18;100.00;99349.13;5075718;28;20024;-67
2023/02/02 00:33:33;;;;;;;10.38;2.45;;;;;;;5.23;100.00;99349.50;5073654;28;20020;-67
2023/02/02 00:35:58;;;;;;;7.32;1.65;;;;;;;5.24;100.00;99337.78;5073106;28;20020;-67
2023/02/02 00:38:24;;;;;;;10.50;1.52;;;;;;;5.25;100.00;99344.00;5071062;28;20059;-67
2023/02/02 00:40:49;;;;;;;15.52;1.88;;;;;;;5.25;100.00;99352.88;5072376;28;20069;-66
2023/02/02 00:43:15;;;;;;;16.70;2.00;;;;;;;5.27;100.00;99340.16;5089446;28;20039;-66
2023/02/02 00:45:44;;;;;;;15.52;1.58;;;;;;;5.23;100.00;99343.28;5074703;28;20025;-66
2023/02/02 00:48:09;;;;;;;12.35;1.80;;;;;;;5.24;100.00;99334.28;5075672;28;20046;-67
2023/02/02 00:50:36;;;;;;;10.43;1.95;;;;;;;5.25;100.00;99330.56;5075219;28;20102;-67
2023/02/02 00:53:24;;;;;;;14.20;2.05;;;;;;;5.29;100.00;99329.25;5080275;28;20024;-66
2023/02/02 00:55:49;;;;;;;4.68;1.50;;;;;;;5.30;100.00;99314.84;5111440;22;20048;-78
2023/02/02 00:58:15;;;;;;;8.88;1.85;;;;;;;5.29;100.00;99315.84;5116082;28;20043;-78
2023/02/02 01:00:40;;;;;;;10.68;2.13;;;;;;;5.16;100.00;99313.59;5103183;28;20028;-75
2023/02/02 01:03:05;;;;;;;7.88;1.80;;;;;;;5.26;100.00;99313.47;5088154;28;20038;-77
2023/02/02 01:05:33;;;;;;;10.88;2.45;;;;;;;5.29;100.00;99331.94;5086084;28;20023;-75
2023/02/02 01:07:58;;;;;;;7.00;1.60;;;;;;;5.30;100.00;99327.44;5082630;28;20020;-76
2023/02/02 01:10:24;;;;;;;10.20;1.90;;;;;;;5.25;100.00;99339.47;5092182;28;20038;-76
2023/02/02 01:12:49;;;;;;;16.35;1.80;;;;;;;5.23;100.00;99329.88;5092383;28;20492;-76
2023/02/02 01:15:14;;;;;;;9.40;1.77;;;;;;;5.22;100.00;99330.91;5095737;28;20023;-74
2023/02/02 01:17:40;;;;;;;8.55;2.92;;;;;;;5.11;100.00;99310.53;5096108;28;20081;-77
2023/02/02 01:20:06;;;;;;;6.70;1.70;;;;;;;5.22;100.00;99328.22;5081619;28;20036;-74
2023/02/02 01:22:35;;;;;;;8.40;1.58;;;;;;;5.19;100.00;99336.56;5079769;28;20030;-75
2023/02/02 01:25:00;;;;;;;13.45;2.13;;;;;;;5.16;100.00;99335.06;5104732;28;20472;-74
2023/02/02 01:27:26;;;;;;;13.27;2.13;;;;;;;5.21;100.00;99350.66;5128717;28;20031;-77
2023/02/02 01:29:51;;;;;;;12.32;1.83;;;;;;;5.19;100.00;99336.56;5102651;28;20078;-76
2023/02/02 01:32:16;;;;;;;10.68;1.52;;;;;;;5.11;100.00;99320.41;5135287;28;20024;-78
2023/02/02 01:34:42;;;;;;;7.13;2.10;;;;;;;5.17;100.00;99351.97;5132817;28;20007;-76
2023/02/02 01:37:08;;;;;;;11.27;1.85;;;;;;;5.14;100.00;99354.97;5120142;28;20040;-77
2023/02/02 01:39:33;;;;;;;14.85;2.28;;;;;;;5.13;100.00;99351.44;5101524;28;20023;-76
2023/02/02 01:41:59;;;;;;;12.98;2.17;;;;;;;5.16;100.00;99358.31;5099452;28;20583;-77
2023/02/02 01:45:02;;;;;;;11.40;2.40;;;;;;;5.16;100.00;99358.31;5088610;28;20560;-76
2023/02/02 01:47:31;;;;;;;9.93;2.17;;;;;;;5.13;100.00;99342.53;5097823;28;20153;-76
2023/02/02 01:49:56;;;;;;;13.20;2.42;;;;;;;5.10;100.00;99343.69;5079902;28;20035;-75
2023/02/02 01:52:24;;;;;;;9.48;1.80;;;;;;;5.08;100.00;99350.22;5104445;28;20027;-74
2023/02/02 01:54:55;;;;;;;10.98;1.73;;;;;;;5.10;100.00;99343.69;5093408;28;20032;-72
2023/02/02 01:57:28;;;;;;;14.38;2.78;;;;;;;5.00;100.00;99341.13;5098041;28;20032;-75
2023/02/02 01:59:57;;;;;;;8.50;1.95;;;;;;;5.01;100.00;99334.75;5079518;28;20366;-77
2023/02/02 02:02:25;;;;;;;10.65;2.03;;;;;;;5.00;100.00;99330.41;5079865;28;20039;-77
2023/02/02 02:04:50;;;;;;;13.13;2.20;;;;;;;5.05;100.00;99337.94;5085557;28;20119;-75
2023/02/02 02:07:15;;;;;;;14.90;2.03;;;;;;;4.99;100.00;99320.66;5089069;28;20024;-76
2023/02/02 02:09:41;;;;;;;12.13;2.70;;;;;;;5.11;100.00;99333.81;5090168;28;20027;-76
2023/02/02 02:12:15;;;;;;;11.70;1.90;;;;;;;5.12;100.00;99327.47;5093194;28;20035;-75
2023/02/02 02:17:27;;;;;;;14.57;2.28;;;;;;;5.21;100.00;99345.28;5097421;28;20028;-75
2023/02/02 02:27:01;;;;;;;9.48;1.48;;;;;;;5.23;100.00;99332.56;5108382;28;20454;-74
2023/02/02 02:29:44;;;;;;;12.40;1.90;;;;;;;5.21;100.00;99334.56;5017886;28;20124;-77
2023/02/02 02:32:37;;;;;;;15.30;2.55;;;;;;;5.22;100.00;99326.38;5113608;28;20106;-75
2023/02/02 02:35:17;;;;;;;6.65;1.65;;;;;;;5.23;100.00;99344.13;5116909;28;20023;-78
2023/02/02 02:37:48;;;;;;;7.88;2.08;;;;;;;5.21;100.00;99342.59;5111067;28;20481;-77
2023/02/02 02:40:22;;;;;;;10.63;2.08;;;;;;;5.23;100.00;99349.50;5088492;28;20032;-75
2023/02/02 02:42:54;;;;;;;14.57;2.67;;;;;;;5.11;100.00;99337.34;5111175;28;20032;-75
2023/02/02 02:45:22;;;;;;;16.40;2.00;;;;;;;5.18;100.00;99340.25;5111700;28;20077;-75
2023/02/02 02:47:49;;;;;;;12.57;2.20;;;;;;;5.17;100.00;99344.78;5110398;28;20020;-76
2023/02/02 02:50:14;;;;;;;20.73;2.80;;;;;;;5.14;100.00;99339.72;5096684;28;20477;-76
2023/02/02 02:52:41;;;;;;;8.82;2.25;;;;;;;5.01;100.00;99339.28;5102860;28;20088;-77
2023/02/02 02:55:10;;;;;;;8.98;2.20;;;;;;;5.08;100.00;99336.81;5115263;28;20586;-75
2023/02/02 02:58:02;;;;;;;7.03;1.90;;;;;;;5.06;100.00;99353.06;5115427;28;20018;-75
2023/02/02 03:00:47;;;;;;;14.75;2.47;;;;;;;5.04;100.00;99344.31;5098297;28;20024;-75
2023/02/02 03:03:27;;;;;;;11.75;2.03;;;;;;;5.07;100.00;99348.53;5094980;28;20069;-75
2023/02/02 03:06:18;;;;;;;14.43;2.30;;;;;;;5.02;100.00;99347.16;5096548;28;20020;-74
2023/02/02 03:08:54;;;;;;;7.38;1.95;;;;;;;4.94;100.00;99339.03;5090866;28;20400;-76
2023/02/02 03:11:19;;;;;;;16.15;2.78;;;;;;;5.01;100.00;99358.06;5093376;28;20024;-76
2023/02/02 03:13:45;;;;;;;13.88;2.78;;;;;;;5.00;100.00;99349.16;5099152;28;20116;-76
2023/02/02 03:16:11;;;;;;;13.73;2.78;;;;;;;5.08;100.00;99356.41;5098869;28;20365;-77
2023/02/02 03:18:36;;;;;;;20.33;2.63;;;;;;;4.97;100.00;99349.44;5094001;28;20023;-77
2023/02/02 03:21:02;;;;;;;18.17;2.33;;;;;;;4.89;100.00;99316.38;5115899;28;20024;-76
2023/02/02 03:23:27;;;;;;;23.60;2.75;;;;;;;5.17;100.00;99360.03;5107255;28;20031;-75
2023/02/02 03:25:54;;;;;;;14.85;2.42;;;;;;;5.10;100.00;99343.69;5095540;28;20538;-77
2023/02/02 03:28:22;;;;;;;12.57;2.45;;;;;;;5.05;100.00;99336.09;5077381;28;20024;-77
2023/02/02 03:30:48;;;;;;;11.70;2.10;;;;;;;5.16;100.00;99332.38;5097118;28;20434;-77
2023/02/02 03:33:14;;;;;;;11.73;2.10;;;;;;;5.18;100.00;99340.25;5097669;28;20020;-77
2023/02/02 03:35:40;;;;;;;12.25;1.88;;;;;;;5.19;100.00;99353.50;5097407;28;20064;-73
2023/02/02 03:38:05;;;;;;;11.00;2.50;;;;;;;5.09;100.00;99341.19;5087178;28;20020;-77
2023/02/02 03:40:31;;;;;;;12.00;2.50;;;;;;;5.19;100.00;99325.84;5109576;28;20031;-75
2023/02/02 03:42:56;;;;;;;12.38;2.50;;;;;;;5.15;100.00;99335.19;5102361;28;20027;-76
2023/02/02 03:45:21;;;;;;;16.13;2.10;;;;;;;5.16;100.00;99339.53;5097473;28;20034;-76
2023/02/02 03:47:47;;;;;;;11.20;2.13;;;;;;;5.28;100.00;99347.19;5114868;28;20024;-77
2023/02/02 03:50:12;;;;;;;17.77;2.70;;;;;;;5.27;100.00;99355.41;5093871;28;20023;-75
2023/02/02 03:52:38;;;;;;;14.75;2.25;;;;;;;5.32;100.00;99346.88;5085610;28;20054;-78
2023/02/02 03:55:04;;;;;;;11.93;2.33;;;;;;;5.11;100.00;99312.34;5105009;28;20385;-77
2023/02/02 03:57:30;;;;;;;12.90;2.10;;;;;;;5.25;100.00;99339.47;5087218;28;20032;-77
2023/02/02 03:59:55;;;;;;;10.63;2.30;;;;;;;5.32;100.00;99347.75;5088492;28;20120;-77
2023/02/02 04:02:21;;;;;;;13.98;2.20;;;;;;;5.19;100.00;99328.53;5084342;28;20019;-77
2023/02/02 04:04:46;;;;;;;8.65;2.10;;;;;;;5.28;100.00;99354.41;5086893;28;20381;-78
2023/02/02 04:07:11;;;;;;;15.48;2.38;;;;;;;5.30;100.00;99360.47;5077413;28;20424;-78
2023/02/02 04:09:37;;;;;;;7.65;2.10;;;;;;;5.31;100.00;99353.25;5102445;28;20035;-77
2023/02/02 04:12:02;;;;;;;18.92;2.05;;;;;;;5.30;100.00;99344.38;5108792;28;20016;-78
2023/02/02 04:14:27;;;;;;;14.55;2.65;;;;;;;5.25;100.00;99354.72;5100450;28;20024;-78
2023/02/02 04:16:53;;;;;;;8.25;2.15;;;;;;;5.20;100.00;99344.44;5109942;28;20024;-76
2023/02/02 04:19:18;;;;;;;12.65;2.55;;;;;;;5.28;100.00;99344.50;5111263;28;20012;-76
2023/02/02 04:21:44;;;;;;;8.32;1.90;;;;;;;5.36;100.00;99370.56;5103880;28;20477;-76
2023/02/02 04:24:11;;;;;;;8.30;2.25;;;;;;;5.41;100.00;99383.50;5093151;28;20065;-74
2023/02/02 04:26:36;;;;;;;18.60;2.63;;;;;;;5.33;100.00;99348.56;5086329;28;20421;-77
2023/02/02 04:29:02;;;;;;;7.93;2.38;;;;;;;5.39;100.00;99380.16;5088316;28;20078;-79
2023/02/02 04:31:28;;;;;;;11.93;2.17;;;;;;;5.46;100.00;99383.91;5094288;28;20057;-81
2023/02/02 04:34:28;;;;;;;8.82;2.13;;;;;;;5.46;100.00;99386.56;5118722;28;20047;-81
2023/02/02 04:36:53;;;;;;;10.25;2.30;;;;;;;5.44;100.00;99378.66;5094493;28;20032;-80
2023/02/02 04:39:18;;;;;;;12.00;3.17;;;;;;;5.41;100.00;99384.34;5094241;28;20111;-79
2023/02/02 04:41:44;;;;;;;10.35;2.13;;;;;;;5.45;100.00;99398.31;5098882;28;20024;-78
2023/02/02 04:44:14;;;;;;;11.65;2.63;;;;;;;5.54;100.00;99383.94;5095653;28;20051;-79
2023/02/02 04:46:39;;;;;;;12.25;2.20;;;;;;;5.49;100.00;99391.63;5092281;28;20028;-79
2023/02/02 04:49:05;;;;;;;10.75;2.30;;;;;;;5.52;100.00;99377.06;5077093;28;20026;-80
2023/02/02 04:51:30;;;;;;;9.98;2.10;;;;;;;5.49;100.00;99391.63;5084456;28;20107;-80
2023/02/02 04:53:55;;;;;;;11.50;2.17;;;;;;;5.46;100.00;99400.84;5091148;28;20035;-78
2023/02/02 04:56:21;;;;;;;9.20;2.00;;;;;;;5.53;100.00;99416.31;5096185;28;20023;-80
2023/02/02 04:58:46;;;;;;;12.52;2.22;;;;;;;5.51;100.00;99411.09;5101001;28;20545;-80
2023/02/02 05:01:17;;;;;;;14.85;2.40;;;;;;;5.43;100.00;99403.84;5095749;28;20030;-82
2023/02/02 05:03:43;;;;;;;15.32;1.92;;;;;;;5.54;100.00;99407.28;5117019;28;20054;-82
2023/02/02 05:06:09;;;;;;;16.52;3.05;;;;;;;5.34;100.00;99391.34;5126680;28;20024;-80
2023/02/02 05:08:36;;;;;;;8.80;1.52;;;;;;;5.09;100.00;99382.25;5106865;28;20492;-79
2023/02/02 05:11:06;;;;;;;15.50;2.35;;;;;;;5.51;100.00;99429.88;5094111;28;20020;-79
2023/02/02 05:13:32;;;;;;;15.82;2.55;;;;;;;5.50;100.00;99420.13;5110450;28;20091;-81
2023/02/02 05:15:57;;;;;;;10.02;2.42;;;;;;;5.56;100.00;99422.22;5102292;28;20035;-77
2023/02/02 05:18:24;;;;;;;20.95;2.42;;;;;;;5.48;100.00;99417.63;5113269;28;20012;-79
2023/02/02 05:20:50;;;;;;;12.13;2.72;;;;;;;5.54;100.00;99393.84;5096754;28;20024;-79
2023/02/02 05:23:15;;;;;;;10.52;2.28;;;;;;;5.49;100.00;99419.31;5097689;28;20020;-80
2023/02/02 05:25:40;;;;;;;12.60;2.28;;;;;;;5.45;100.00;99401.00;5102677;28;20631;-79
2023/02/02 05:28:05;;;;;;;16.27;2.75;;;;;;;5.44;100.00;99421.59;5092559;28;20031;-78
2023/02/02 05:30:31;;;;;;;9.32;2.58;;;;;;;5.49;100.00;99416.63;5073431;28;20024;-78
2023/02/02 05:32:56;;;;;;;14.57;2.92;;;;;;;5.47;100.00;99437.38;5097846;28;20051;-79
2023/02/02 05:35:21;;;;;;;15.20;2.47;;;;;;;5.34;100.00;99407.44;5088910;28;20028;-73
2023/02/02 05:37:47;;;;;;;12.30;2.15;;;;;;;5.51;100.00;99447.84;5105278;28;20030;-74
2023/02/02 05:40:12;;;;;;;18.52;2.65;;;;;;;5.48;100.00;99427.53;5111154;28;20035;-74
2023/02/02 05:42:37;;;;;;;5.57;2.15;;;;;;;5.43;100.00;99425.31;5107353;28;20020;-73
2023/02/02 05:45:04;;;;;;;10.57;2.15;;;;;;;5.47;100.00;99437.38;5100259;28;20039;-74
2023/02/02 05:47:29;;;;;;;17.77;2.65;;;;;;;5.37;100.00;99425.94;5079988;28;20024;-74
2023/02/02 05:49:55;;;;;;;11.77;2.33;;;;;;;5.43;100.00;99440.56;5081787;28;20028;-72
2023/02/02 05:52:23;;;;;;;11.85;2.28;;;;;;;5.45;100.00;99452.84;5074326;28;20114;-73
2023/02/02 05:54:49;;;;;;;13.90;2.30;;;;;;;5.35;100.00;99437.81;5098129;28;20108;-79
2023/02/02 05:57:38;;;;;;;18.88;2.35;;;;;;;5.48;100.00;99457.03;5080763;28;20415;-79
2023/02/02 06:00:04;;;;;;;9.25;1.70;;;;;;;5.31;100.00;99450.69;5085204;28;20118;-77
2023/02/02 06:03:02;;;;;;;13.27;2.25;;;;;;;5.32;100.00;99462.25;5099044;28;20070;-79
2023/02/02 06:05:27;;;;;;;8.02;2.20;;;;;;;5.33;100.00;99456.75;5109713;28;20020;-81
2023/02/02 06:07:53;;;;;;;14.55;2.40;;;;;;;4.80;100.00;99394.03;5081389;28;20081;-81
2023/02/02 06:10:30;;;;;;;10.90;3.20;;;;;;;4.89;100.00;99405.69;5092237;28;20024;-81
2023/02/02 06:13:26;;;;;;;10.70;2.00;;;;;;;5.37;100.00;99457.25;5107469;28;20016;-79
2023/02/02 06:15:52;;;;;;;7.45;2.53;;;;;;;4.75;100.00;99374.88;5104108;28;20020;-82
2023/02/02 06:18:17;;;;;;;6.50;2.08;;;;;;;4.86;100.00;99392.59;5101815;28;20094;-81
2023/02/02 06:20:46;;;;;;;10.40;2.10;;;;;;;4.78;100.00;99371.91;5113659;28;20024;-81
2023/02/02 06:23:11;;;;;;;10.95;2.20;;;;;;;5.42;100.00;99474.63;5072457;22;20136;-62
2023/02/02 06:25:37;;;;;;;8.23;2.13;;;;;;;5.43;100.00;99481.66;5066049;28;20072;-62
2023/02/02 06:28:02;;;;;;;10.95;2.08;;;;;;;5.39;100.00;99490.16;5046922;28;20056;-64
2023/02/02 06:30:28;;;;;;;14.60;2.33;;;;;;;5.43;100.00;99492.38;5033248;28;20495;-63
2023/02/02 06:32:53;;;;;;;13.82;2.20;;;;;;;5.44;100.00;99499.44;5030059;28;20034;-62
2023/02/02 06:35:19;;;;;;;10.57;2.20;;;;;;;5.43;100.00;99486.19;5029373;28;20025;-63
2023/02/02 06:37:45;;;;;;;13.25;2.22;;;;;;;5.39;100.00;99479.44;5028804;28;20036;-62
2023/02/02 06:40:12;;;;;;;29.80;3.80;;;;;;;5.38;100.00;99483.13;5045927;28;20029;-63
2023/02/02 06:42:38;;;;;;;16.42;2.80;;;;;;;5.42;100.00;99493.41;5041607;28;20112;-63
2023/02/02 06:45:03;;;;;;;11.48;2.15;;;;;;;5.45;100.00;99500.31;5031916;28;20176;-62
2023/02/02 06:47:31;;;;;;;10.88;3.30;;;;;;;5.43;100.00;99500.44;5037426;28;20427;-62
2023/02/02 06:49:57;;;;;;;12.93;2.30;;;;;;;5.42;100.00;99490.72;5037082;28;20028;-67
2023/02/02 06:52:22;;;;;;;19.58;2.80;;;;;;;5.42;100.00;99498.75;5055068;28;20362;-67
2023/02/02 06:54:47;;;;;;;6.53;2.17;;;;;;;5.37;100.00;99476.03;5023946;28;20514;-67
2023/02/02 06:57:13;;;;;;;9.13;2.65;;;;;;;5.45;100.00;99487.72;5045823;28;20029;-67
2023/02/02 06:59:40;;;;;;;15.00;2.55;;;;;;;5.46;100.00;99500.13;5073701;28;20524;-67
2023/02/02 07:02:10;;;;;;;11.10;1.85;;;;;;;5.48;100.00;99498.13;5065304;28;20025;-67
2023/02/02 07:04:35;;;;;;;16.05;2.33;;;;;;;5.44;100.00;99493.22;5038446;28;20053;-63
2023/02/02 07:07:00;;;;;;;11.07;2.88;;;;;;;5.46;100.00;99499.28;5037963;28;20060;-63
2023/02/02 07:09:26;;;;;;;12.68;2.50;;;;;;;5.47;100.00;99509.00;5045801;28;20025;-63
2023/02/02 07:11:51;;;;;;;14.68;2.58;;;;;;;5.50;100.00;99506.03;5048162;28;20033;-63
2023/02/02 07:14:16;;;;;;;9.18;2.05;;;;;;;5.48;100.00;99490.09;5037346;28;20036;-63
2023/02/02 07:16:42;;;;;;;13.88;2.28;;;;;;;5.46;100.00;99502.81;5036297;28;20025;-63
2023/02/02 07:19:08;;;;;;;10.75;3.08;;;;;;;5.48;100.00;99506.19;5053757;28;20032;-63
2023/02/02 07:21:36;;;;;;;11.52;2.45;;;;;;;5.51;100.00;99507.72;5022011;28;20029;-63
2023/02/02 07:24:04;;;;;;;9.63;2.22;;;;;;;5.45;100.00;99503.81;5030786;28;20120;-63
2023/02/02 07:26:29;;;;;;;14.38;2.08;;;;;;;5.53;100.00;99494.13;5042878;28;20012;-63
2023/02/02 07:28:54;;;;;;;14.90;3.03;;;;;;;5.53;100.00;99495.00;5060349;28;20078;-63
2023/02/02 07:31:23;;;;;;;17.38;2.80;;;;;;;5.53;100.00;99495.00;5034303;28;20033;-63
2023/02/02 07:33:49;;;;;;;13.98;2.08;;;;;;;5.55;100.00;99502.88;5024740;28;20026;-63
2023/02/02 07:36:17;;;;;;;12.02;2.60;;;;;;;5.56;100.00;99505.41;5032452;28;20040;-64
2023/02/02 07:38:45;;;;;;;9.13;2.00;;;;;;;5.59;100.00;99506.97;5029723;28;20024;-63
2023/02/02 07:41:11;;;;;;;13.82;2.95;;;;;;;5.57;100.00;99511.63;5029985;28;20029;-63
2023/02/02 07:43:37;;;;;;;12.70;3.28;;;;;;;5.57;100.00;99501.72;5019743;28;20420;-63
2023/02/02 07:46:06;;;;;;;17.08;4.32;;;;;;;5.54;100.00;99518.16;5027751;28;20033;-63
2023/02/02 07:48:33;;;;;;;10.80;2.42;;;;;;;5.56;100.00;99509.97;5052826;28;20163;-63
2023/02/02 07:51:04;;;;;;;14.80;2.78;;;;;;;5.60;100.00;99506.78;5047918;28;20033;-63
2023/02/02 07:53:30;;;;;;;9.02;2.63;;;;;;;5.66;100.00;99502.66;5056404;28;20032;-63
2023/02/02 07:56:28;;;;;;;8.50;2.50;;;;;;;5.65;100.00;99517.91;5054056;28;20024;-63
2023/02/02 07:58:55;;;;;;;11.63;2.58;;;;;;;5.67;100.00;99513.22;5031177;28;20064;-63
2023/02/02 08:01:21;;;;;;;17.15;2.63;;;;;;;5.72;100.00;99521.66;5039235;28;20032;-63
2023/02/02 08:03:49;;;;;;;7.43;2.45;;;;;;;5.77;100.00;99531.94;5027986;28;20083;-63
2023/02/02 08:06:19;;;;;;;8.00;2.42;;;;;;;5.73;100.00;99519.81;5016808;28;20082;-63
2023/02/02 08:08:45;;;;;;;13.90;2.00;;;;;;;5.71;100.00;99519.13;5038522;28;20024;-63
2023/02/02 08:11:13;;;;;;;11.27;2.28;;;;;;;5.78;100.00;99519.38;5024893;28;20033;-63
2023/02/02 08:13:39;;;;;;;13.10;2.58;;;;;;;5.81;100.00;99513.69;5033727;28;20068;-68
2023/02/02 08:16:06;;;;;;;16.45;2.22;;;;;;;5.85;100.00;99520.44;5050969;28;20082;-63
2023/02/02 08:18:32;;;;;;;8.02;2.10;;;;;;;5.76;100.00;99553.56;5054139;28;20017;-63
2023/02/02 08:21:02;;;;;;;9.27;2.35;;;;;;;5.63;100.00;99527.97;5055546;28;20051;-63
2023/02/02 08:23:28;;;;;;;10.70;1.85;;;;;;;5.81;100.00;99545.91;5057519;28;20021;-63
2023/02/02 08:26:03;;;;;;;13.80;2.60;;;;;;;5.82;100.00;99543.06;5036088;28;20403;-63
2023/02/02 08:28:29;;;;;;;7.45;1.70;;;;;;;5.86;100.00;99573.97;5036396;28;20032;-63
2023/02/02 08:30:54;;;;;;;10.55;3.28;;;;;;;5.87;100.00;99562.25;5026290;28;20095;-63
2023/02/02 08:33:19;;;;;;;13.85;3.17;;;;;;;5.91;100.00;99558.25;5033937;28;20507;-63
2023/02/02 08:35:46;;;;;;;10.73;1.98;;;;;;;5.89;100.00;99573.69;5028872;28;20029;-63
2023/02/02 08:38:11;;;;;;;6.45;2.13;;;;;;;5.86;100.00;99565.91;5023854;28;20108;-62
2023/02/02 08:40:37;;;;;;;10.90;2.40;;;;;;;5.85;100.00;99564.25;5039146;28;20104;-62
2023/02/02 08:43:02;;;;;;;10.48;2.05;;;;;;;6.00;100.00;99556.53;5031195;28;20033;-63
2023/02/02 08:45:28;;;;;;;8.40;1.98;;;;;;;6.10;100.00;99553.72;5039746;28;20035;-63
2023/02/02 08:47:53;;;;;;;14.77;2.65;;;;;;;6.14;100.00;99549.72;5046626;28;20029;-63
2023/02/02 08:50:23;;;;;;;10.15;2.70;;;;;;;6.04;100.00;99560.56;5043709;28;20029;-63
2023/02/02 08:52:49;;;;;;;9.32;2.10;;;;;;;6.00;100.00;99561.03;5020411;28;20033;-63
2023/02/02 08:55:15;;;;;;;7.32;2.10;;;;;;;6.02;100.00;99556.34;5041388;28;20036;-62
2023/02/02 08:57:40;;;;;;;10.32;2.30;;;;;;;6.06;100.00;99572.00;5046548;28;20025;-63
2023/02/02 09:00:07;;;;;;;12.20;2.35;;;;;;;5.99;100.00;99564.72;5035387;28;20031;-62
2023/02/02 09:02:32;;;;;;;13.05;2.25;;;;;;;6.04;100.00;99557.03;5031583;28;20465;-62
2023/02/02 09:04:57;;;;;;;12.32;2.75;;;;;;;6.01;100.00;99568.94;5047055;28;20079;-62
2023/02/02 09:07:23;;;;;;;11.68;2.55;;;;;;;6.00;100.00;99572.63;5062690;28;20028;-62
2023/02/02 09:09:50;;;;;;;12.68;2.65;;;;;;;5.98;100.00;99566.56;5054010;28;20468;-63
2023/02/02 09:12:17;;;;;;;10.07;2.15;;;;;;;6.04;100.00;99567.78;5048649;28;20036;-63
2023/02/02 09:14:42;;;;;;;12.88;3.10;;;;;;;6.01;100.00;99581.53;5045057;28;20037;-63
2023/02/02 09:17:08;;;;;;;14.02;3.00;;;;;;;6.08;100.00;99580.75;5036216;28;20100;-63
2023/02/02 09:19:33;;;;;;;19.15;2.38;;;;;;;6.12;100.00;99575.91;5048349;28;20346;-64
2023/02/02 09:21:58;;;;;;;10.70;2.42;;;;;;;6.12;100.00;99559.78;5044215;28;20029;-63
2023/02/02 09:24:24;;;;;;;16.80;2.70;;;;;;;6.25;100.00;99570.97;5029556;28;20021;-64
2023/02/02 09:26:49;;;;;;;16.20;2.90;;;;;;;6.32;100.00;99563.97;5064519;28;20024;-64
2023/02/02 09:29:18;;;;;;;16.05;3.25;;;;;;;6.24;100.00;99579.22;5067909;28;20033;-62
2023/02/02 09:31:43;;;;;;;9.93;3.15;;;;;;;6.33;100.00;99568.34;5029499;28;20475;-63
2023/02/02 09:34:11;;;;;;;8.23;2.65;;;;;;;6.55;100.00;99583.13;5042138;28;20029;-63
2023/02/02 09:36:38;;;;;;;20.02;3.15;;;;;;;6.57;100.00;99575.72;5031711;28;20026;-63
2023/02/02 09:39:04;;;;;;;13.02;3.30;;;;;;;6.29;100.00;99587.66;5028477;28;20477;-63
2023/02/02 09:41:39;;;;;;;9.32;2.30;;;;;;;6.31;100.00;99581.13;5042753;28;20025;-63
2023/02/02 09:44:34;;;;;;;18.08;2.72;;;;;;;6.30;100.00;99595.53;5031266;28;20026;-63
2023/02/02 09:47:52;;;;;;;13.40;2.88;;;;;;;6.30;100.00;99600.06;5047211;28;20021;-63
2023/02/02 09:50:30;;;;;;;8.97;2.40;;;;;;;6.32;100.00;99604.28;5007658;28;20128;-63
2023/02/02 09:53:35;;;;;;;15.18;2.70;;;;;;;6.33;100.00;99597.06;5043178;28;20190;-64
2023/02/02 09:56:05;;;;;;;20.52;2.72;;;;;;;6.42;100.00;99604.19;5039250;28;20029;-63
2023/02/02 09:59:09;;;;;;;9.10;2.20;;;;;;;6.38;100.00;99607.34;5032683;28;20472;-63
2023/02/02 10:01:37;;;;;;;15.27;3.15;;;;;;;6.34;100.00;99601.41;5039106;28;20028;-63
2023/02/02 10:04:17;;;;;;;11.73;3.25;;;;;;;6.24;100.00;99606.91;5051054;28;20021;-63
2023/02/02 10:06:45;;;;;;;6.53;2.42;;;;;;;6.16;100.00;99585.34;5044862;28;20029;-62
2023/02/02 10:09:22;;;;;;;10.45;2.78;;;;;;;6.26;100.00;99604.91;5036650;28;20017;-63
2023/02/02 10:12:19;;;;;;;14.98;3.00;;;;;;;6.28;100.00;99578.72;5043147;28;20548;-62
2023/02/02 10:14:54;;;;;;;9.57;2.83;;;;;;;6.17;100.00;99596.94;5034128;28;20119;-62
2023/02/02 10:18:03;;;;;;;8.68;2.95;;;;;;;6.40;100.00;99578.47;5034786;28;20025;-63
2023/02/02 10:20:43;;;;;;;14.70;2.72;;;;;;;6.64;100.00;99584.00;4964726;28;20042;-62
2023/02/02 10:23:21;;;;;;;11.75;3.30;;;;;;;6.81;100.00;99587.59;5051827;28;20483;-63
2023/02/02 10:26:10;;;;;;;11.05;2.50;;;;;;;6.99;100.00;99585.69;5032219;28;20369;-63
2023/02/02 10:28:55;;;;;;;;;;;;;;;6.89;100.00;99597.56;5027522;28;20100;-62
2023/02/02 10:31:41;;;;;;;11.35;2.78;;;;;;;6.79;100.00;99600.41;5031591;28;19923;-63
2023/02/02 10:34:20;;;;;;;11.85;2.33;;;;;;;6.84;100.00;99583.75;5031824;28;20029;-62
2023/02/02 10:36:59;;;;;;;14.10;2.25;;;;;;;7.02;100.00;99587.22;5053179;28;20153;-63
2023/02/02 10:39:45;;;;;;;18.25;3.90;;;;;;;7.16;100.00;99575.00;5017905;28;20037;-63
2023/02/02 10:42:38;;;;;;;14.18;2.47;;;;;;;7.00;100.00;99575.78;5022891;28;20058;-63
2023/02/02 10:45:14;;;;;;;12.30;2.53;;;;;;;6.96;100.00;99591.41;5042019;28;20035;-64
2023/02/02 10:47:40;;;;;;;15.57;2.30;;;;;;;7.05;100.00;99589.59;5038283;28;20029;-66
2023/02/02 10:50:11;;;;;;;10.05;2.63;;;;;;;6.80;100.00;99608.28;5038551;28;20047;-63
2023/02/02 10:52:39;;;;;;;15.02;3.00;;;;;;;6.76;100.00;99601.56;5022643;28;20057;-63
2023/02/02 10:55:06;;;;;;;14.00;3.60;;;;;;;6.73;100.00;99606.41;5028928;28;20493;-63
2023/02/02 10:57:50;;;;;;;10.00;2.65;;;;;;;6.69;100.00;99605.88;5033263;28;20766;-63
2023/02/02 11:00:18;;;;;;;9.85;2.55;;;;;;;6.87;100.00;99619.28;5036353;28;20071;-63
2023/02/02 11:02:47;;;;;;;6.27;1.67;;;;;;;6.65;100.00;99631.38;5031770;28;20075;-63
2023/02/02 11:08:11;;;;;;;15.60;2.88;;;;;;;6.53;100.00;99638.03;5047072;28;20036;-63
2023/02/02 11:10:37;;;;;;;16.20;3.35;;;;;;;6.27;100.00;99625.41;5022619;28;20392;-62
2023/02/02 11:13:04;;;;;;;11.27;2.53;;;;;;;6.23;100.00;99632.06;5042653;28;20032;-62
2023/02/02 11:15:30;;;;;;;12.73;2.30;;;;;;;6.28;100.00;99615.50;5054113;28;20568;-62
2023/02/02 11:18:13;;;;;;;16.80;2.90;;;;;;;6.29;100.00;99630.63;5055905;28;20129;-66
2023/02/02 11:20:39;;;;;;;9.57;2.25;;;;;;;6.38;100.00;99620.78;5021225;28;20040;-63
2023/02/02 11:23:06;;;;;;;10.85;2.40;;;;;;;6.32;100.00;99624.94;5030502;28;20416;-63
2023/02/02 11:25:39;;;;;;;14.75;2.50;;;;;;;6.36;100.00;99608.31;5033133;28;20719;-64
2023/02/02 11:28:23;;;;;;;10.60;2.30;;;;;;;6.31;100.00;99618.72;5043267;28;20102;-63
2023/02/02 11:30:51;;;;;;;9.18;2.20;;;;;;;6.44;100.00;99612.09;5041538;28;20037;-63
2023/02/02 11:33:34;;;;;;;9.95;2.05;;;;;;;6.33;100.00;99619.41;5033932;28;20119;-61
2023/02/02 11:36:03;;;;;;;11.10;2.17;;;;;;;6.50;100.00;99611.47;5041761;28;20024;-61
2023/02/02 11:38:29;;;;;;;11.32;2.25;;;;;;;6.45;100.00;99611.09;5037796;28;20365;-62
2023/02/02 11:41:02;;;;;;;16.20;2.80;;;;;;;6.32;100.00;99615.03;5050344;28;20124;-61
2023/02/02 11:43:43;;;;;;;10.73;2.42;;;;;;;6.39;100.00;99611.72;5030023;28;20028;-62
2023/02/02 11:46:29;;;;;;;10.57;2.40;;;;;;;6.29;100.00;99611.81;5041278;28;20017;-62
2023/02/02 11:49:03;;;;;;;10.30;2.78;;;;;;;6.32;100.00;99620.41;5035484;28;20029;-58
2023/02/02 11:51:30;;;;;;;12.55;2.40;;;;;;;6.23;100.00;99615.94;5035761;28;20041;-64